sensor_id;sensor_type;location;lat;lon;timestamp;P1;durP1;ratioP1;P2;durP2;ratioP2
69220;SDS011;56331;51.992;20.910;2022-11-02T00:00:30;17.70;;;11.70;;
69220;SDS011;56331;51.992;20.910;2022-11-02T00:02:58;15.15;;;10.15;;
69220;SDS011;56331;51.992;20.910;2022-11-02T00:05:24;15.08;;;11.12;;
69220;SDS011;56331;51.992;20.910;2022-11-02T00:07:52;16.52;;;11.15;;
69220;SDS011;56331;51.992;20.910;2022-11-02T00:10:20;17.77;;;11.03;;
69220;SDS011;56331;51.992;20.910;2022-11-02T00:12:47;15.38;;;10.15;;
69220;SDS011;56331;51.992;20.910;2022-11-02T00:15:15;16.60;;;10.98;;
69220;SDS011;56331;51.992;20.910;2022-11-02T00:17:44;16.57;;;11.05;;
69220;SDS011;56331;51.992;20.910;2022-11-02T00:20:15;15.32;;;10.48;;
69220;SDS011;56331;51.992;20.910;2022-11-02T00:22:44;18.17;;;11.20;;
69220;SDS011;56331;51.992;20.910;2022-11-02T00:25:13;14.07;;;10.13;;
69220;SDS011;56331;51.992;20.910;2022-11-02T00:27:42;16.07;;;10.78;;
69220;SDS011;56331;51.992;20.910;2022-11-02T00:30:09;17.55;;;10.40;;
69220;SDS011;56331;51.992;20.910;2022-11-02T00:32:36;17.40;;;10.53;;
69220;SDS011;56331;51.992;20.910;2022-11-02T00:35:02;18.10;;;11.03;;
69220;SDS011;56331;51.992;20.910;2022-11-02T00:37:29;17.62;;;10.58;;
69220;SDS011;56331;51.992;20.910;2022-11-02T00:39:55;16.90;;;11.00;;
69220;SDS011;56331;51.992;20.910;2022-11-02T00:42:22;16.85;;;10.68;;
69220;SDS011;56331;51.992;20.910;2022-11-02T00:44:49;14.45;;;10.32;;
69220;SDS011;56331;51.992;20.910;2022-11-02T00:47:15;17.35;;;11.30;;
69220;SDS011;56331;51.992;20.910;2022-11-02T00:49:41;16.93;;;10.48;;
69220;SDS011;56331;51.992;20.910;2022-11-02T00:52:08;16.32;;;10.65;;
69220;SDS011;56331;51.992;20.910;2022-11-02T00:54:34;15.72;;;10.23;;
69220;SDS011;56331;51.992;20.910;2022-11-02T00:57:01;14.83;;;10.43;;
69220;SDS011;56331;51.992;20.910;2022-11-02T00:59:28;15.93;;;10.40;;
69220;SDS011;56331;51.992;20.910;2022-11-02T01:01:54;16.65;;;10.53;;
69220;SDS011;56331;51.992;20.910;2022-11-02T01:04:21;16.55;;;10.15;;
69220;SDS011;56331;51.992;20.910;2022-11-02T01:06:47;14.53;;;9.70;;
69220;SDS011;56331;51.992;20.910;2022-11-02T01:09:14;14.73;;;9.68;;
69220;SDS011;56331;51.992;20.910;2022-11-02T01:11:41;14.18;;;10.03;;
69220;SDS011;56331;51.992;20.910;2022-11-02T01:14:09;16.17;;;10.15;;
69220;SDS011;56331;51.992;20.910;2022-11-02T01:16:37;14.58;;;9.83;;
69220;SDS011;56331;51.992;20.910;2022-11-02T01:21:32;15.25;;;9.70;;
69220;SDS011;56331;51.992;20.910;2022-11-02T01:23:58;14.75;;;10.38;;
69220;SDS011;56331;51.992;20.910;2022-11-02T01:26:25;17.05;;;10.48;;
69220;SDS011;56331;51.992;20.910;2022-11-02T01:28:54;16.65;;;10.32;;
69220;SDS011;56331;51.992;20.910;2022-11-02T01:31:21;16.48;;;10.70;;
69220;SDS011;56331;51.992;20.910;2022-11-02T01:33:47;14.65;;;9.80;;
69220;SDS011;56331;51.992;20.910;2022-11-02T01:36:15;15.98;;;10.55;;
69220;SDS011;56331;51.992;20.910;2022-11-02T01:38:45;15.50;;;10.32;;
69220;SDS011;56331;51.992;20.910;2022-11-02T01:41:12;14.63;;;9.65;;
69220;SDS011;56331;51.992;20.910;2022-11-02T01:43:43;13.75;;;9.78;;
69220;SDS011;56331;51.992;20.910;2022-11-02T01:48:48;15.18;;;9.45;;
69220;SDS011;56331;51.992;20.910;2022-11-02T01:51:26;13.72;;;9.50;;
69220;SDS011;56331;51.992;20.910;2022-11-02T01:53:56;17.30;;;10.35;;
69220;SDS011;56331;51.992;20.910;2022-11-02T01:58:55;15.65;;;9.98;;
69220;SDS011;56331;51.992;20.910;2022-11-02T02:01:24;17.50;;;10.58;;
69220;SDS011;56331;51.992;20.910;2022-11-02T02:03:51;16.80;;;10.40;;
69220;SDS011;56331;51.992;20.910;2022-11-02T02:06:19;14.68;;;10.20;;
69220;SDS011;56331;51.992;20.910;2022-11-02T02:08:47;15.13;;;10.00;;
69220;SDS011;56331;51.992;20.910;2022-11-02T02:14:04;14.47;;;9.73;;
69220;SDS011;56331;51.992;20.910;2022-11-02T02:24:45;16.60;;;10.25;;
69220;SDS011;56331;51.992;20.910;2022-11-02T02:27:24;13.90;;;9.83;;
69220;SDS011;56331;51.992;20.910;2022-11-02T02:30:08;14.07;;;9.60;;
69220;SDS011;56331;51.992;20.910;2022-11-02T02:35:29;15.55;;;10.13;;
69220;SDS011;56331;51.992;20.910;2022-11-02T02:38:01;14.33;;;10.28;;
69220;SDS011;56331;51.992;20.910;2022-11-02T02:43:12;15.08;;;10.53;;
69220;SDS011;56331;51.992;20.910;2022-11-02T02:45:43;14.15;;;9.95;;
69220;SDS011;56331;51.992;20.910;2022-11-02T02:50:47;16.50;;;10.78;;
69220;SDS011;56331;51.992;20.910;2022-11-02T02:53:19;16.90;;;10.50;;
69220;SDS011;56331;51.992;20.910;2022-11-02T02:55:51;16.73;;;10.72;;
69220;SDS011;56331;51.992;20.910;2022-11-02T02:58:20;15.23;;;10.20;;
69220;SDS011;56331;51.992;20.910;2022-11-02T03:00:52;16.25;;;10.85;;
69220;SDS011;56331;51.992;20.910;2022-11-02T03:03:21;16.80;;;10.78;;
69220;SDS011;56331;51.992;20.910;2022-11-02T03:08:36;17.25;;;11.45;;
69220;SDS011;56331;51.992;20.910;2022-11-02T03:11:14;16.73;;;11.22;;
69220;SDS011;56331;51.992;20.910;2022-11-02T03:19:23;15.20;;;10.58;;
69220;SDS011;56331;51.992;20.910;2022-11-02T03:21:58;17.07;;;11.65;;
69220;SDS011;56331;51.992;20.910;2022-11-02T03:24:34;16.42;;;11.20;;
69220;SDS011;56331;51.992;20.910;2022-11-02T03:30:13;17.75;;;11.33;;
69220;SDS011;56331;51.992;20.910;2022-11-02T03:32:19;17.05;;;10.85;;
69220;SDS011;56331;51.992;20.910;2022-11-02T03:34:52;18.30;;;11.40;;
69220;SDS011;56331;51.992;20.910;2022-11-02T03:39:49;16.95;;;10.93;;
69220;SDS011;56331;51.992;20.910;2022-11-02T03:42:20;17.52;;;11.15;;
69220;SDS011;56331;51.992;20.910;2022-11-02T03:44:52;15.78;;;11.18;;
69220;SDS011;56331;51.992;20.910;2022-11-02T03:47:22;17.87;;;11.50;;
69220;SDS011;56331;51.992;20.910;2022-11-02T03:49:50;16.42;;;11.15;;
69220;SDS011;56331;51.992;20.910;2022-11-02T03:52:22;16.62;;;11.40;;
69220;SDS011;56331;51.992;20.910;2022-11-02T03:54:52;16.15;;;11.22;;
69220;SDS011;56331;51.992;20.910;2022-11-02T03:57:21;15.83;;;11.50;;
69220;SDS011;56331;51.992;20.910;2022-11-02T04:02:16;16.90;;;10.40;;
69220;SDS011;56331;51.992;20.910;2022-11-02T04:04:48;17.73;;;11.10;;
69220;SDS011;56331;51.992;20.910;2022-11-02T04:07:20;16.82;;;11.90;;
69220;SDS011;56331;51.992;20.910;2022-11-02T04:12:12;15.68;;;10.90;;
69220;SDS011;56331;51.992;20.910;2022-11-02T04:14:56;18.65;;;11.97;;
69220;SDS011;56331;51.992;20.910;2022-11-02T04:17:25;17.45;;;11.03;;
69220;SDS011;56331;51.992;20.910;2022-11-02T04:20:10;16.87;;;10.78;;
69220;SDS011;56331;51.992;20.910;2022-11-02T04:22:37;17.80;;;11.55;;
69220;SDS011;56331;51.992;20.910;2022-11-02T04:25:22;16.85;;;10.80;;
69220;SDS011;56331;51.992;20.910;2022-11-02T04:27:50;16.45;;;11.53;;
69220;SDS011;56331;51.992;20.910;2022-11-02T04:30:18;18.45;;;12.15;;
69220;SDS011;56331;51.992;20.910;2022-11-02T04:32:47;17.50;;;12.10;;
69220;SDS011;56331;51.992;20.910;2022-11-02T04:35:33;18.37;;;11.43;;
69220;SDS011;56331;51.992;20.910;2022-11-02T04:38:01;16.45;;;11.55;;
69220;SDS011;56331;51.992;20.910;2022-11-02T04:40:45;19.75;;;12.05;;
69220;SDS011;56331;51.992;20.910;2022-11-02T04:43:12;16.90;;;11.83;;
69220;SDS011;56331;51.992;20.910;2022-11-02T04:45:40;19.02;;;11.57;;
69220;SDS011;56331;51.992;20.910;2022-11-02T04:48:07;16.05;;;10.95;;
69220;SDS011;56331;51.992;20.910;2022-11-02T04:50:34;15.85;;;10.63;;
69220;SDS011;56331;51.992;20.910;2022-11-02T04:53:02;19.95;;;11.08;;
69220;SDS011;56331;51.992;20.910;2022-11-02T04:57:57;16.48;;;10.68;;
69220;SDS011;56331;51.992;20.910;2022-11-02T05:00:24;17.60;;;12.00;;
69220;SDS011;56331;51.992;20.910;2022-11-02T05:02:50;18.15;;;10.88;;
69220;SDS011;56331;51.992;20.910;2022-11-02T05:05:17;19.02;;;11.85;;
69220;SDS011;56331;51.992;20.910;2022-11-02T05:07:43;18.12;;;11.43;;
69220;SDS011;56331;51.992;20.910;2022-11-02T05:10:10;17.60;;;11.60;;
69220;SDS011;56331;51.992;20.910;2022-11-02T05:12:37;17.52;;;11.48;;
69220;SDS011;56331;51.992;20.910;2022-11-02T05:15:04;17.35;;;11.57;;
69220;SDS011;56331;51.992;20.910;2022-11-02T05:17:31;18.37;;;11.03;;
69220;SDS011;56331;51.992;20.910;2022-11-02T05:19:57;17.27;;;11.18;;
69220;SDS011;56331;51.992;20.910;2022-11-02T05:22:24;19.35;;;11.83;;
69220;SDS011;56331;51.992;20.910;2022-11-02T05:24:50;16.25;;;11.60;;
69220;SDS011;56331;51.992;20.910;2022-11-02T05:27:17;15.03;;;10.53;;
69220;SDS011;56331;51.992;20.910;2022-11-02T05:29:43;16.75;;;11.20;;
69220;SDS011;56331;51.992;20.910;2022-11-02T05:32:10;17.65;;;11.40;;
69220;SDS011;56331;51.992;20.910;2022-11-02T05:34:36;17.23;;;11.48;;
69220;SDS011;56331;51.992;20.910;2022-11-02T05:37:03;16.40;;;10.53;;
69220;SDS011;56331;51.992;20.910;2022-11-02T05:39:29;16.97;;;10.70;;
69220;SDS011;56331;51.992;20.910;2022-11-02T05:41:56;15.60;;;10.78;;
69220;SDS011;56331;51.992;20.910;2022-11-02T05:44:22;16.00;;;10.65;;
69220;SDS011;56331;51.992;20.910;2022-11-02T05:46:49;17.32;;;11.73;;
69220;SDS011;56331;51.992;20.910;2022-11-02T05:49:15;18.37;;;12.15;;
69220;SDS011;56331;51.992;20.910;2022-11-02T05:51:42;17.65;;;10.70;;
69220;SDS011;56331;51.992;20.910;2022-11-02T05:54:09;17.95;;;11.83;;
69220;SDS011;56331;51.992;20.910;2022-11-02T05:56:35;16.60;;;11.03;;
69220;SDS011;56331;51.992;20.910;2022-11-02T05:59:06;17.95;;;11.63;;
69220;SDS011;56331;51.992;20.910;2022-11-02T06:01:32;16.67;;;11.80;;
69220;SDS011;56331;51.992;20.910;2022-11-02T06:03:59;16.32;;;11.43;;
69220;SDS011;56331;51.992;20.910;2022-11-02T06:06:25;17.90;;;11.60;;
69220;SDS011;56331;51.992;20.910;2022-11-02T06:08:52;16.67;;;11.53;;
69220;SDS011;56331;51.992;20.910;2022-11-02T06:11:20;19.02;;;12.23;;
69220;SDS011;56331;51.992;20.910;2022-11-02T06:13:47;17.27;;;12.10;;
69220;SDS011;56331;51.992;20.910;2022-11-02T06:16:16;17.73;;;11.63;;
69220;SDS011;56331;51.992;20.910;2022-11-02T06:18:43;16.85;;;11.63;;
69220;SDS011;56331;51.992;20.910;2022-11-02T06:21:10;18.65;;;12.03;;
69220;SDS011;56331;51.992;20.910;2022-11-02T06:23:37;15.38;;;10.70;;
69220;SDS011;56331;51.992;20.910;2022-11-02T06:26:04;16.57;;;11.12;;
69220;SDS011;56331;51.992;20.910;2022-11-02T06:28:31;16.42;;;11.08;;
69220;SDS011;56331;51.992;20.910;2022-11-02T06:30:58;20.30;;;11.68;;
69220;SDS011;56331;51.992;20.910;2022-11-02T06:33:24;15.98;;;11.22;;
69220;SDS011;56331;51.992;20.910;2022-11-02T06:35:51;16.93;;;10.95;;
69220;SDS011;56331;51.992;20.910;2022-11-02T06:38:19;16.37;;;10.90;;
69220;SDS011;56331;51.992;20.910;2022-11-02T06:40:53;17.52;;;11.63;;
69220;SDS011;56331;51.992;20.910;2022-11-02T06:43:20;18.35;;;11.70;;
69220;SDS011;56331;51.992;20.910;2022-11-02T06:45:47;19.82;;;11.08;;
69220;SDS011;56331;51.992;20.910;2022-11-02T06:48:13;17.98;;;11.50;;
69220;SDS011;56331;51.992;20.910;2022-11-02T06:50:40;16.80;;;11.25;;
69220;SDS011;56331;51.992;20.910;2022-11-02T06:53:07;16.62;;;11.83;;
69220;SDS011;56331;51.992;20.910;2022-11-02T06:55:33;18.52;;;11.48;;
69220;SDS011;56331;51.992;20.910;2022-11-02T06:58:00;17.48;;;10.93;;
69220;SDS011;56331;51.992;20.910;2022-11-02T07:00:26;17.05;;;11.22;;
69220;SDS011;56331;51.992;20.910;2022-11-02T07:05:30;15.48;;;10.60;;
69220;SDS011;56331;51.992;20.910;2022-11-02T07:07:58;16.27;;;11.30;;
69220;SDS011;56331;51.992;20.910;2022-11-02T07:10:24;15.28;;;10.32;;
69220;SDS011;56331;51.992;20.910;2022-11-02T07:12:52;16.80;;;11.43;;
69220;SDS011;56331;51.992;20.910;2022-11-02T07:15:22;17.00;;;10.78;;
69220;SDS011;56331;51.992;20.910;2022-11-02T07:17:50;14.38;;;10.68;;
69220;SDS011;56331;51.992;20.910;2022-11-02T07:20:17;16.05;;;11.30;;
69220;SDS011;56331;51.992;20.910;2022-11-02T07:22:56;17.23;;;11.57;;
69220;SDS011;56331;51.992;20.910;2022-11-02T07:25:26;16.37;;;10.45;;
69220;SDS011;56331;51.992;20.910;2022-11-02T07:27:57;16.40;;;11.38;;
69220;SDS011;56331;51.992;20.910;2022-11-02T07:30:25;16.00;;;10.65;;
69220;SDS011;56331;51.992;20.910;2022-11-02T07:32:52;16.12;;;11.35;;
69220;SDS011;56331;51.992;20.910;2022-11-02T07:35:19;16.97;;;11.22;;
69220;SDS011;56331;51.992;20.910;2022-11-02T07:37:56;16.02;;;10.88;;
69220;SDS011;56331;51.992;20.910;2022-11-02T07:40:24;16.40;;;10.93;;
69220;SDS011;56331;51.992;20.910;2022-11-02T07:42:51;15.53;;;10.50;;
69220;SDS011;56331;51.992;20.910;2022-11-02T07:45:19;15.98;;;10.55;;
69220;SDS011;56331;51.992;20.910;2022-11-02T07:47:47;14.53;;;10.32;;
69220;SDS011;56331;51.992;20.910;2022-11-02T07:50:15;15.60;;;10.75;;
69220;SDS011;56331;51.992;20.910;2022-11-02T07:52:47;17.95;;;10.45;;
69220;SDS011;56331;51.992;20.910;2022-11-02T07:55:19;15.58;;;10.40;;
69220;SDS011;56331;51.992;20.910;2022-11-02T07:57:52;15.72;;;11.30;;
69220;SDS011;56331;51.992;20.910;2022-11-02T08:00:20;14.30;;;10.63;;
69220;SDS011;56331;51.992;20.910;2022-11-02T08:02:47;13.50;;;9.73;;
69220;SDS011;56331;51.992;20.910;2022-11-02T08:05:14;15.28;;;10.38;;
69220;SDS011;56331;51.992;20.910;2022-11-02T08:07:40;14.65;;;10.32;;
69220;SDS011;56331;51.992;20.910;2022-11-02T08:10:07;15.38;;;10.65;;
69220;SDS011;56331;51.992;20.910;2022-11-02T08:12:34;18.52;;;11.00;;
69220;SDS011;56331;51.992;20.910;2022-11-02T08:15:00;26.77;;;11.63;;
69220;SDS011;56331;51.992;20.910;2022-11-02T08:17:27;40.78;;;14.07;;
69220;SDS011;56331;51.992;20.910;2022-11-02T08:19:53;57.03;;;14.98;;
69220;SDS011;56331;51.992;20.910;2022-11-02T08:22:20;31.45;;;13.93;;
69220;SDS011;56331;51.992;20.910;2022-11-02T08:24:47;34.92;;;12.63;;
69220;SDS011;56331;51.992;20.910;2022-11-02T08:27:14;36.63;;;12.73;;
69220;SDS011;56331;51.992;20.910;2022-11-02T08:29:41;27.37;;;13.08;;
69220;SDS011;56331;51.992;20.910;2022-11-02T08:32:07;32.23;;;12.82;;
69220;SDS011;56331;51.992;20.910;2022-11-02T08:34:34;31.05;;;12.98;;
69220;SDS011;56331;51.992;20.910;2022-11-02T08:37:00;29.32;;;11.75;;
69220;SDS011;56331;51.992;20.910;2022-11-02T08:39:27;21.85;;;12.25;;
69220;SDS011;56331;51.992;20.910;2022-11-02T08:41:54;26.12;;;12.43;;
69220;SDS011;56331;51.992;20.910;2022-11-02T08:44:20;22.20;;;11.12;;
69220;SDS011;56331;51.992;20.910;2022-11-02T08:46:47;22.93;;;11.22;;
69220;SDS011;56331;51.992;20.910;2022-11-02T08:49:14;24.40;;;11.80;;
69220;SDS011;56331;51.992;20.910;2022-11-02T08:51:43;20.23;;;11.10;;
69220;SDS011;56331;51.992;20.910;2022-11-02T08:54:10;22.87;;;11.03;;
69220;SDS011;56331;51.992;20.910;2022-11-02T08:56:37;18.42;;;10.82;;
69220;SDS011;56331;51.992;20.910;2022-11-02T08:59:04;20.45;;;11.00;;
69220;SDS011;56331;51.992;20.910;2022-11-02T09:01:31;16.52;;;10.20;;
69220;SDS011;56331;51.992;20.910;2022-11-02T09:03:57;17.60;;;10.70;;
69220;SDS011;56331;51.992;20.910;2022-11-02T09:06:24;22.17;;;9.55;;
69220;SDS011;56331;51.992;20.910;2022-11-02T09:08:50;18.35;;;9.95;;
69220;SDS011;56331;51.992;20.910;2022-11-02T09:11:17;18.00;;;9.90;;
69220;SDS011;56331;51.992;20.910;2022-11-02T09:13:43;16.97;;;9.50;;
69220;SDS011;56331;51.992;20.910;2022-11-02T09:16:10;14.53;;;8.68;;
69220;SDS011;56331;51.992;20.910;2022-11-02T09:18:36;16.55;;;9.73;;
69220;SDS011;56331;51.992;20.910;2022-11-02T09:21:03;16.27;;;9.00;;
69220;SDS011;56331;51.992;20.910;2022-11-02T09:23:31;15.40;;;9.45;;
69220;SDS011;56331;51.992;20.910;2022-11-02T09:25:57;13.93;;;8.78;;
69220;SDS011;56331;51.992;20.910;2022-11-02T09:28:25;14.10;;;8.88;;
69220;SDS011;56331;51.992;20.910;2022-11-02T09:30:51;14.33;;;8.73;;
69220;SDS011;56331;51.992;20.910;2022-11-02T09:33:22;12.82;;;8.80;;
69220;SDS011;56331;51.992;20.910;2022-11-02T09:35:48;15.93;;;9.03;;
69220;SDS011;56331;51.992;20.910;2022-11-02T09:38:15;23.02;;;11.48;;
69220;SDS011;56331;51.992;20.910;2022-11-02T09:40:49;14.85;;;8.80;;
69220;SDS011;56331;51.992;20.910;2022-11-02T09:46:01;15.55;;;9.28;;
69220;SDS011;56331;51.992;20.910;2022-11-02T09:48:32;15.23;;;8.98;;
69220;SDS011;56331;51.992;20.910;2022-11-02T09:51:20;12.53;;;8.28;;
69220;SDS011;56331;51.992;20.910;2022-11-02T09:53:54;14.45;;;8.60;;
69220;SDS011;56331;51.992;20.910;2022-11-02T09:56:28;20.05;;;11.65;;
69220;SDS011;56331;51.992;20.910;2022-11-02T09:58:59;13.43;;;8.48;;
69220;SDS011;56331;51.992;20.910;2022-11-02T10:07:08;12.73;;;8.23;;
69220;SDS011;56331;51.992;20.910;2022-11-02T10:09:55;11.28;;;7.50;;
69220;SDS011;56331;51.992;20.910;2022-11-02T10:13:00;12.37;;;8.00;;
69220;SDS011;56331;51.992;20.910;2022-11-02T10:15:37;13.68;;;8.13;;
69220;SDS011;56331;51.992;20.910;2022-11-02T10:18:08;13.08;;;8.20;;
69220;SDS011;56331;51.992;20.910;2022-11-02T10:20:37;11.10;;;7.65;;
69220;SDS011;56331;51.992;20.910;2022-11-02T10:23:11;10.45;;;7.78;;
69220;SDS011;56331;51.992;20.910;2022-11-02T10:25:46;11.55;;;8.05;;
69220;SDS011;56331;51.992;20.910;2022-11-02T10:28:15;11.73;;;7.57;;
69220;SDS011;56331;51.992;20.910;2022-11-02T10:30:44;13.32;;;7.03;;
69220;SDS011;56331;51.992;20.910;2022-11-02T10:33:15;10.90;;;7.65;;
69220;SDS011;56331;51.992;20.910;2022-11-02T10:38:52;10.95;;;7.40;;
69220;SDS011;56331;51.992;20.910;2022-11-02T10:44:11;20.02;;;10.70;;
69220;SDS011;56331;51.992;20.910;2022-11-02T10:52:43;10.20;;;6.97;;
69220;SDS011;56331;51.992;20.910;2022-11-02T10:55:25;11.45;;;7.33;;
69220;SDS011;56331;51.992;20.910;2022-11-02T10:57:57;12.03;;;7.62;;
69220;SDS011;56331;51.992;20.910;2022-11-02T11:00:30;10.90;;;6.78;;
69220;SDS011;56331;51.992;20.910;2022-11-02T11:03:09;10.10;;;7.30;;
69220;SDS011;56331;51.992;20.910;2022-11-02T11:05:32;9.63;;;6.35;;
69220;SDS011;56331;51.992;20.910;2022-11-02T11:08:01;13.03;;;7.03;;
69220;SDS011;56331;51.992;20.910;2022-11-02T11:10:30;10.53;;;7.05;;
69220;SDS011;56331;51.992;20.910;2022-11-02T11:12:59;8.53;;;6.53;;
69220;SDS011;56331;51.992;20.910;2022-11-02T11:15:27;10.25;;;6.58;;
69220;SDS011;56331;51.992;20.910;2022-11-02T11:17:56;9.53;;;6.65;;
69220;SDS011;56331;51.992;20.910;2022-11-02T11:20:29;11.28;;;6.55;;
69220;SDS011;56331;51.992;20.910;2022-11-02T11:25:52;10.78;;;6.62;;
69220;SDS011;56331;51.992;20.910;2022-11-02T11:28:22;13.43;;;6.95;;
69220;SDS011;56331;51.992;20.910;2022-11-02T11:33:28;10.50;;;6.15;;
69220;SDS011;56331;51.992;20.910;2022-11-02T11:35:57;11.08;;;6.33;;
69220;SDS011;56331;51.992;20.910;2022-11-02T11:38:25;10.80;;;6.65;;
69220;SDS011;56331;51.992;20.910;2022-11-02T11:40:54;9.80;;;6.70;;
69220;SDS011;56331;51.992;20.910;2022-11-02T11:43:27;8.25;;;6.40;;
69220;SDS011;56331;51.992;20.910;2022-11-02T11:45:58;8.28;;;5.65;;
69220;SDS011;56331;51.992;20.910;2022-11-02T11:48:40;7.72;;;5.55;;
69220;SDS011;56331;51.992;20.910;2022-11-02T11:51:28;8.73;;;6.40;;
69220;SDS011;56331;51.992;20.910;2022-11-02T11:56:56;7.62;;;5.60;;
69220;SDS011;56331;51.992;20.910;2022-11-02T11:59:43;8.53;;;5.90;;
69220;SDS011;56331;51.992;20.910;2022-11-02T12:01:58;8.60;;;6.10;;
69220;SDS011;56331;51.992;20.910;2022-11-02T12:04:27;8.60;;;5.75;;
69220;SDS011;56331;51.992;20.910;2022-11-02T12:07:12;8.08;;;5.12;;
69220;SDS011;56331;51.992;20.910;2022-11-02T12:20:33;7.10;;;5.17;;
69220;SDS011;56331;51.992;20.910;2022-11-02T12:23:23;8.53;;;5.30;;
69220;SDS011;56331;51.992;20.910;2022-11-02T12:36:44;9.33;;;5.22;;
69220;SDS011;56331;51.992;20.910;2022-11-02T12:50:46;8.08;;;5.00;;
69220;SDS011;56331;51.992;20.910;2022-11-02T12:53:11;6.70;;;4.67;;
69220;SDS011;56331;51.992;20.910;2022-11-02T12:55:41;5.77;;;4.80;;
69220;SDS011;56331;51.992;20.910;2022-11-02T12:58:06;6.92;;;5.05;;
69220;SDS011;56331;51.992;20.910;2022-11-02T13:00:49;4.92;;;4.17;;
69220;SDS011;56331;51.992;20.910;2022-11-02T13:05:58;6.17;;;4.90;;
69220;SDS011;56331;51.992;20.910;2022-11-02T13:08:39;6.72;;;4.67;;
69220;SDS011;56331;51.992;20.910;2022-11-02T13:11:16;7.08;;;4.90;;
69220;SDS011;56331;51.992;20.910;2022-11-02T13:13:45;5.70;;;4.50;;
69220;SDS011;56331;51.992;20.910;2022-11-02T13:16:18;5.97;;;4.53;;
69220;SDS011;56331;51.992;20.910;2022-11-02T13:21:17;5.60;;;4.70;;
69220;SDS011;56331;51.992;20.910;2022-11-02T13:23:47;7.67;;;4.85;;
69220;SDS011;56331;51.992;20.910;2022-11-02T13:26:34;6.70;;;4.60;;
69220;SDS011;56331;51.992;20.910;2022-11-02T13:29:05;5.42;;;4.20;;
69220;SDS011;56331;51.992;20.910;2022-11-02T13:34:32;6.53;;;4.55;;
69220;SDS011;56331;51.992;20.910;2022-11-02T13:37:08;7.12;;;4.60;;
69220;SDS011;56331;51.992;20.910;2022-11-02T13:39:38;7.70;;;4.53;;
69220;SDS011;56331;51.992;20.910;2022-11-02T13:44:54;5.42;;;4.08;;
69220;SDS011;56331;51.992;20.910;2022-11-02T13:47:21;6.47;;;4.60;;
69220;SDS011;56331;51.992;20.910;2022-11-02T13:49:58;7.50;;;4.67;;
69220;SDS011;56331;51.992;20.910;2022-11-02T13:52:36;6.35;;;4.30;;
69220;SDS011;56331;51.992;20.910;2022-11-02T13:55:07;6.00;;;4.28;;
69220;SDS011;56331;51.992;20.910;2022-11-02T13:57:38;4.70;;;3.80;;
69220;SDS011;56331;51.992;20.910;2022-11-02T14:00:27;5.67;;;4.28;;
69220;SDS011;56331;51.992;20.910;2022-11-02T14:03:00;6.20;;;3.98;;
69220;SDS011;56331;51.992;20.910;2022-11-02T14:05:32;6.80;;;4.58;;
69220;SDS011;56331;51.992;20.910;2022-11-02T14:08:05;5.33;;;4.20;;
69220;SDS011;56331;51.992;20.910;2022-11-02T14:10:38;6.78;;;3.85;;
69220;SDS011;56331;51.992;20.910;2022-11-02T14:13:10;4.92;;;4.10;;
69220;SDS011;56331;51.992;20.910;2022-11-02T14:15:39;5.00;;;4.05;;
69220;SDS011;56331;51.992;20.910;2022-11-02T14:20:45;6.67;;;4.47;;
69220;SDS011;56331;51.992;20.910;2022-11-02T14:25:49;12.33;;;6.83;;
69220;SDS011;56331;51.992;20.910;2022-11-02T14:33:52;8.40;;;5.12;;
69220;SDS011;56331;51.992;20.910;2022-11-02T14:36:46;6.60;;;4.90;;
69220;SDS011;56331;51.992;20.910;2022-11-02T14:42:30;9.23;;;5.20;;
69220;SDS011;56331;51.992;20.910;2022-11-02T14:44:40;7.42;;;4.35;;
69220;SDS011;56331;51.992;20.910;2022-11-02T14:47:27;6.67;;;4.55;;
69220;SDS011;56331;51.992;20.910;2022-11-02T14:50:05;6.28;;;4.50;;
69220;SDS011;56331;51.992;20.910;2022-11-02T14:52:37;5.50;;;4.03;;
69220;SDS011;56331;51.992;20.910;2022-11-02T14:55:30;6.45;;;4.80;;
69220;SDS011;56331;51.992;20.910;2022-11-02T14:57:55;7.70;;;4.42;;
69220;SDS011;56331;51.992;20.910;2022-11-02T15:03:10;12.45;;;8.25;;
69220;SDS011;56331;51.992;20.910;2022-11-02T15:05:34;12.45;;;7.90;;
69220;SDS011;56331;51.992;20.910;2022-11-02T15:08:03;11.57;;;7.10;;
69220;SDS011;56331;51.992;20.910;2022-11-02T15:10:37;8.10;;;5.60;;
69220;SDS011;56331;51.992;20.910;2022-11-02T15:18:31;13.03;;;6.28;;
69220;SDS011;56331;51.992;20.910;2022-11-02T15:26:18;10.65;;;5.33;;
69220;SDS011;56331;51.992;20.910;2022-11-02T15:28:47;6.90;;;5.15;;
69220;SDS011;56331;51.992;20.910;2022-11-02T15:31:16;7.78;;;4.95;;
69220;SDS011;56331;51.992;20.910;2022-11-02T15:38:59;8.08;;;5.60;;
69220;SDS011;56331;51.992;20.910;2022-11-02T15:41:44;8.80;;;5.65;;
69220;SDS011;56331;51.992;20.910;2022-11-02T15:50:15;7.90;;;5.17;;
69220;SDS011;56331;51.992;20.910;2022-11-02T15:55:41;7.70;;;5.70;;
69220;SDS011;56331;51.992;20.910;2022-11-02T16:01:05;6.95;;;5.30;;
69220;SDS011;56331;51.992;20.910;2022-11-02T16:03:37;7.62;;;5.65;;
69220;SDS011;56331;51.992;20.910;2022-11-02T16:06:05;8.98;;;5.83;;
69220;SDS011;56331;51.992;20.910;2022-11-02T16:08:33;8.05;;;5.47;;
69220;SDS011;56331;51.992;20.910;2022-11-02T16:11:11;7.33;;;5.53;;
69220;SDS011;56331;51.992;20.910;2022-11-02T16:13:32;10.78;;;6.05;;
69220;SDS011;56331;51.992;20.910;2022-11-02T16:16:03;16.55;;;10.20;;
69220;SDS011;56331;51.992;20.910;2022-11-02T16:18:39;16.40;;;9.45;;
69220;SDS011;56331;51.992;20.910;2022-11-02T16:21:05;13.22;;;7.62;;
69220;SDS011;56331;51.992;20.910;2022-11-02T16:23:36;8.73;;;6.17;;
69220;SDS011;56331;51.992;20.910;2022-11-02T16:26:05;11.10;;;6.85;;
69220;SDS011;56331;51.992;20.910;2022-11-02T16:28:34;8.83;;;6.00;;
69220;SDS011;56331;51.992;20.910;2022-11-02T16:31:03;9.80;;;5.90;;
69220;SDS011;56331;51.992;20.910;2022-11-02T16:38:57;9.30;;;6.00;;
69220;SDS011;56331;51.992;20.910;2022-11-02T16:41:27;7.92;;;5.62;;
69220;SDS011;56331;51.992;20.910;2022-11-02T16:43:55;9.78;;;5.75;;
69220;SDS011;56331;51.992;20.910;2022-11-02T16:46:41;8.18;;;5.40;;
69220;SDS011;56331;51.992;20.910;2022-11-02T16:49:55;9.35;;;5.40;;
69220;SDS011;56331;51.992;20.910;2022-11-02T16:51:39;7.90;;;5.92;;
69220;SDS011;56331;51.992;20.910;2022-11-02T16:56:58;9.95;;;6.08;;
69220;SDS011;56331;51.992;20.910;2022-11-02T17:01:56;8.40;;;5.95;;
69220;SDS011;56331;51.992;20.910;2022-11-02T17:04:28;9.45;;;6.28;;
69220;SDS011;56331;51.992;20.910;2022-11-02T17:06:58;6.97;;;5.42;;
69220;SDS011;56331;51.992;20.910;2022-11-02T17:09:30;7.58;;;5.35;;
69220;SDS011;56331;51.992;20.910;2022-11-02T17:12:03;11.15;;;5.45;;
69220;SDS011;56331;51.992;20.910;2022-11-02T17:14:27;8.78;;;5.72;;
69220;SDS011;56331;51.992;20.910;2022-11-02T17:17:08;9.38;;;6.00;;
69220;SDS011;56331;51.992;20.910;2022-11-02T17:20:04;8.73;;;5.65;;
69220;SDS011;56331;51.992;20.910;2022-11-02T17:22:34;9.05;;;5.60;;
69220;SDS011;56331;51.992;20.910;2022-11-02T17:25:12;10.08;;;5.42;;
69220;SDS011;56331;51.992;20.910;2022-11-02T17:27:41;9.93;;;6.22;;
69220;SDS011;56331;51.992;20.910;2022-11-02T17:30:28;7.90;;;5.40;;
69220;SDS011;56331;51.992;20.910;2022-11-02T17:32:55;8.38;;;5.92;;